Daniel, Wyoming
Current Conditions -  °F | °C
As of 10:10 PM on Saturday 20 Dec 2014 (Local Time) from KPNA Reporting Station
Overcast Overcast  
Wind Chill: 23°   Ceiling: 4200
Heat Index: 23°   Visibility: 10mi
Dew Point: 21°   Wind: 3mph
Humidity: 93%   Direction: 50°NE
Pressure: 29.95"   Gusts: NA
Location:  42.86°N, 110.07°W
Report Text: KPNA 210510Z AUTO 05003KT 10SM BKN042 BKN075 OVC120 M05/M06 A2995 RMK AO2
Loading
Personal Weather Stations






























Interactive Weather Map New forecast layout! Learn more

10-Day Weather Forecast

Advertisements
Track Severe Weather on mobile